sensor_id;sensor_type;location;lat;lon;timestamp;P1;durP1;ratioP1;P2;durP2;ratioP2
17953;SDS011;9102;53.548;9.926;2022-10-15T00:01:08;28.20;;;17.60;;
17953;SDS011;9102;53.548;9.926;2022-10-15T00:03:37;33.85;;;18.25;;
17953;SDS011;9102;53.548;9.926;2022-10-15T00:06:05;29.85;;;17.38;;
17953;SDS011;9102;53.548;9.926;2022-10-15T00:08:33;29.30;;;18.67;;
17953;SDS011;9102;53.548;9.926;2022-10-15T00:11:02;35.88;;;18.70;;
17953;SDS011;9102;53.548;9.926;2022-10-15T00:13:31;30.02;;;17.95;;
17953;SDS011;9102;53.548;9.926;2022-10-15T00:15:58;34.78;;;18.85;;
17953;SDS011;9102;53.548;9.926;2022-10-15T00:18:25;30.52;;;17.70;;
17953;SDS011;9102;53.548;9.926;2022-10-15T00:20:52;29.52;;;17.30;;
17953;SDS011;9102;53.548;9.926;2022-10-15T00:23:19;28.95;;;16.42;;
17953;SDS011;9102;53.548;9.926;2022-10-15T00:25:45;28.30;;;16.48;;
17953;SDS011;9102;53.548;9.926;2022-10-15T00:28:14;29.48;;;16.90;;
17953;SDS011;9102;53.548;9.926;2022-10-15T00:30:40;26.00;;;16.95;;
17953;SDS011;9102;53.548;9.926;2022-10-15T00:33:07;29.23;;;17.10;;
17953;SDS011;9102;53.548;9.926;2022-10-15T00:35:34;30.15;;;17.27;;
17953;SDS011;9102;53.548;9.926;2022-10-15T00:38:01;31.95;;;18.42;;
17953;SDS011;9102;53.548;9.926;2022-10-15T00:40:28;26.85;;;16.35;;
17953;SDS011;9102;53.548;9.926;2022-10-15T00:42:54;25.42;;;16.15;;
17953;SDS011;9102;53.548;9.926;2022-10-15T00:45:23;31.83;;;17.88;;
17953;SDS011;9102;53.548;9.926;2022-10-15T00:47:50;34.33;;;20.08;;
17953;SDS011;9102;53.548;9.926;2022-10-15T00:50:18;29.50;;;17.80;;
17953;SDS011;9102;53.548;9.926;2022-10-15T00:52:49;30.60;;;18.92;;
17953;SDS011;9102;53.548;9.926;2022-10-15T00:55:32;30.08;;;18.73;;
17953;SDS011;9102;53.548;9.926;2022-10-15T00:58:02;33.75;;;19.40;;
17953;SDS011;9102;53.548;9.926;2022-10-15T01:00:34;32.15;;;18.20;;
17953;SDS011;9102;53.548;9.926;2022-10-15T01:03:01;37.05;;;20.00;;
17953;SDS011;9102;53.548;9.926;2022-10-15T01:05:28;34.83;;;20.10;;
17953;SDS011;9102;53.548;9.926;2022-10-15T01:07:55;35.13;;;20.58;;
17953;SDS011;9102;53.548;9.926;2022-10-15T01:10:22;37.65;;;20.33;;
17953;SDS011;9102;53.548;9.926;2022-10-15T01:13:01;44.78;;;22.23;;
17953;SDS011;9102;53.548;9.926;2022-10-15T01:15:36;40.78;;;21.23;;
17953;SDS011;9102;53.548;9.926;2022-10-15T01:18:11;38.72;;;21.67;;
17953;SDS011;9102;53.548;9.926;2022-10-15T01:20:46;35.97;;;20.63;;
17953;SDS011;9102;53.548;9.926;2022-10-15T01:26:44;41.55;;;22.92;;
17953;SDS011;9102;53.548;9.926;2022-10-15T01:30:04;42.28;;;23.02;;
17953;SDS011;9102;53.548;9.926;2022-10-15T01:32:52;40.42;;;22.92;;
17953;SDS011;9102;53.548;9.926;2022-10-15T01:35:30;45.67;;;24.00;;
17953;SDS011;9102;53.548;9.926;2022-10-15T01:38:08;40.33;;;23.48;;
17953;SDS011;9102;53.548;9.926;2022-10-15T01:40:46;43.55;;;24.58;;
17953;SDS011;9102;53.548;9.926;2022-10-15T01:43:19;42.15;;;24.55;;
17953;SDS011;9102;53.548;9.926;2022-10-15T01:45:51;42.53;;;23.98;;
17953;SDS011;9102;53.548;9.926;2022-10-15T01:48:24;45.40;;;24.30;;
17953;SDS011;9102;53.548;9.926;2022-10-15T01:50:54;42.10;;;22.95;;
17953;SDS011;9102;53.548;9.926;2022-10-15T01:53:25;46.75;;;25.08;;
17953;SDS011;9102;53.548;9.926;2022-10-15T01:55:53;40.67;;;23.48;;
17953;SDS011;9102;53.548;9.926;2022-10-15T01:58:23;46.45;;;25.70;;
17953;SDS011;9102;53.548;9.926;2022-10-15T02:00:51;49.55;;;26.77;;
17953;SDS011;9102;53.548;9.926;2022-10-15T02:03:19;49.92;;;25.77;;
17953;SDS011;9102;53.548;9.926;2022-10-15T02:05:49;49.28;;;27.00;;
17953;SDS011;9102;53.548;9.926;2022-10-15T02:08:23;49.22;;;26.08;;
17953;SDS011;9102;53.548;9.926;2022-10-15T02:11:01;47.15;;;25.83;;
17953;SDS011;9102;53.548;9.926;2022-10-15T02:13:32;52.03;;;28.50;;
17953;SDS011;9102;53.548;9.926;2022-10-15T02:16:10;51.53;;;27.23;;
17953;SDS011;9102;53.548;9.926;2022-10-15T02:18:40;49.60;;;26.30;;
17953;SDS011;9102;53.548;9.926;2022-10-15T02:21:15;51.20;;;26.25;;
17953;SDS011;9102;53.548;9.926;2022-10-15T02:23:45;49.45;;;27.35;;
17953;SDS011;9102;53.548;9.926;2022-10-15T02:26:17;53.90;;;28.15;;
17953;SDS011;9102;53.548;9.926;2022-10-15T02:28:49;54.65;;;27.52;;
17953;SDS011;9102;53.548;9.926;2022-10-15T02:31:18;54.25;;;27.70;;
17953;SDS011;9102;53.548;9.926;2022-10-15T02:33:47;45.47;;;26.25;;
17953;SDS011;9102;53.548;9.926;2022-10-15T02:36:16;51.95;;;28.27;;
17953;SDS011;9102;53.548;9.926;2022-10-15T02:38:44;43.85;;;25.08;;
17953;SDS011;9102;53.548;9.926;2022-10-15T02:41:13;49.70;;;25.58;;
17953;SDS011;9102;53.548;9.926;2022-10-15T02:43:40;52.47;;;27.48;;
17953;SDS011;9102;53.548;9.926;2022-10-15T02:46:07;46.75;;;25.92;;
17953;SDS011;9102;53.548;9.926;2022-10-15T02:48:37;46.17;;;25.60;;
17953;SDS011;9102;53.548;9.926;2022-10-15T02:51:04;46.92;;;25.80;;
17953;SDS011;9102;53.548;9.926;2022-10-15T02:53:32;43.70;;;23.83;;
17953;SDS011;9102;53.548;9.926;2022-10-15T02:55:59;44.08;;;23.98;;
17953;SDS011;9102;53.548;9.926;2022-10-15T02:58:26;40.45;;;23.58;;
17953;SDS011;9102;53.548;9.926;2022-10-15T03:00:53;38.17;;;22.38;;
17953;SDS011;9102;53.548;9.926;2022-10-15T03:03:20;38.47;;;22.15;;
17953;SDS011;9102;53.548;9.926;2022-10-15T03:05:46;38.92;;;21.52;;
17953;SDS011;9102;53.548;9.926;2022-10-15T03:08:13;40.50;;;21.15;;
17953;SDS011;9102;53.548;9.926;2022-10-15T03:10:41;34.42;;;20.23;;
17953;SDS011;9102;53.548;9.926;2022-10-15T03:13:09;34.10;;;20.02;;
17953;SDS011;9102;53.548;9.926;2022-10-15T03:15:36;37.50;;;20.60;;
17953;SDS011;9102;53.548;9.926;2022-10-15T03:18:03;36.83;;;20.13;;
17953;SDS011;9102;53.548;9.926;2022-10-15T03:20:30;34.50;;;19.67;;
17953;SDS011;9102;53.548;9.926;2022-10-15T03:22:57;38.88;;;20.52;;
17953;SDS011;9102;53.548;9.926;2022-10-15T03:25:24;35.72;;;20.75;;
17953;SDS011;9102;53.548;9.926;2022-10-15T03:27:52;39.70;;;21.70;;
17953;SDS011;9102;53.548;9.926;2022-10-15T03:30:19;40.50;;;21.95;;
17953;SDS011;9102;53.548;9.926;2022-10-15T03:32:45;37.20;;;20.75;;
17953;SDS011;9102;53.548;9.926;2022-10-15T03:35:12;39.13;;;22.20;;
17953;SDS011;9102;53.548;9.926;2022-10-15T03:37:39;45.92;;;23.08;;
17953;SDS011;9102;53.548;9.926;2022-10-15T03:40:07;43.08;;;22.02;;
17953;SDS011;9102;53.548;9.926;2022-10-15T03:42:34;40.85;;;21.98;;
17953;SDS011;9102;53.548;9.926;2022-10-15T03:45:02;45.35;;;23.48;;
17953;SDS011;9102;53.548;9.926;2022-10-15T03:47:30;48.65;;;23.77;;
17953;SDS011;9102;53.548;9.926;2022-10-15T03:49:56;46.03;;;22.40;;
17953;SDS011;9102;53.548;9.926;2022-10-15T03:52:23;45.83;;;22.33;;
17953;SDS011;9102;53.548;9.926;2022-10-15T03:54:50;48.80;;;22.88;;
17953;SDS011;9102;53.548;9.926;2022-10-15T03:57:17;44.10;;;23.25;;
17953;SDS011;9102;53.548;9.926;2022-10-15T03:59:43;47.90;;;23.38;;
17953;SDS011;9102;53.548;9.926;2022-10-15T04:02:12;47.50;;;22.25;;
17953;SDS011;9102;53.548;9.926;2022-10-15T04:04:38;45.92;;;22.30;;
17953;SDS011;9102;53.548;9.926;2022-10-15T04:07:05;45.95;;;22.85;;
17953;SDS011;9102;53.548;9.926;2022-10-15T04:09:32;46.85;;;21.60;;
17953;SDS011;9102;53.548;9.926;2022-10-15T04:11:59;43.03;;;21.95;;
17953;SDS011;9102;53.548;9.926;2022-10-15T04:14:26;47.92;;;23.35;;
17953;SDS011;9102;53.548;9.926;2022-10-15T04:16:53;47.22;;;22.58;;
17953;SDS011;9102;53.548;9.926;2022-10-15T04:19:22;42.10;;;22.10;;
17953;SDS011;9102;53.548;9.926;2022-10-15T04:21:48;50.30;;;23.52;;
17953;SDS011;9102;53.548;9.926;2022-10-15T04:24:15;48.80;;;23.77;;
17953;SDS011;9102;53.548;9.926;2022-10-15T04:26:42;48.20;;;23.92;;
17953;SDS011;9102;53.548;9.926;2022-10-15T04:29:09;49.00;;;24.33;;
17953;SDS011;9102;53.548;9.926;2022-10-15T04:31:35;47.80;;;23.70;;
17953;SDS011;9102;53.548;9.926;2022-10-15T04:34:02;49.80;;;23.38;;
17953;SDS011;9102;53.548;9.926;2022-10-15T04:36:30;54.28;;;25.80;;
17953;SDS011;9102;53.548;9.926;2022-10-15T04:38:57;51.08;;;24.75;;
17953;SDS011;9102;53.548;9.926;2022-10-15T04:41:24;59.72;;;27.60;;
17953;SDS011;9102;53.548;9.926;2022-10-15T04:43:51;57.30;;;26.02;;
17953;SDS011;9102;53.548;9.926;2022-10-15T04:46:18;60.47;;;27.45;;
17953;SDS011;9102;53.548;9.926;2022-10-15T04:48:46;58.53;;;26.20;;
17953;SDS011;9102;53.548;9.926;2022-10-15T04:51:14;57.92;;;26.13;;
17953;SDS011;9102;53.548;9.926;2022-10-15T04:53:43;55.95;;;26.65;;
17953;SDS011;9102;53.548;9.926;2022-10-15T04:56:11;56.05;;;26.88;;
17953;SDS011;9102;53.548;9.926;2022-10-15T04:58:40;53.92;;;25.17;;
17953;SDS011;9102;53.548;9.926;2022-10-15T05:01:08;56.03;;;26.00;;
17953;SDS011;9102;53.548;9.926;2022-10-15T05:03:37;51.70;;;25.73;;
17953;SDS011;9102;53.548;9.926;2022-10-15T05:06:06;55.88;;;26.02;;
17953;SDS011;9102;53.548;9.926;2022-10-15T05:08:34;58.67;;;27.35;;
17953;SDS011;9102;53.548;9.926;2022-10-15T05:11:04;57.33;;;26.48;;
17953;SDS011;9102;53.548;9.926;2022-10-15T05:13:32;60.47;;;25.88;;
17953;SDS011;9102;53.548;9.926;2022-10-15T05:16:07;53.13;;;25.48;;
17953;SDS011;9102;53.548;9.926;2022-10-15T05:18:34;53.03;;;26.10;;
17953;SDS011;9102;53.548;9.926;2022-10-15T05:21:01;55.13;;;26.23;;
17953;SDS011;9102;53.548;9.926;2022-10-15T05:23:28;56.92;;;25.02;;
17953;SDS011;9102;53.548;9.926;2022-10-15T05:25:57;52.92;;;25.50;;
17953;SDS011;9102;53.548;9.926;2022-10-15T05:28:26;55.83;;;26.35;;
17953;SDS011;9102;53.548;9.926;2022-10-15T05:30:53;59.45;;;27.25;;
17953;SDS011;9102;53.548;9.926;2022-10-15T05:33:20;54.10;;;26.88;;
17953;SDS011;9102;53.548;9.926;2022-10-15T05:35:46;56.75;;;26.33;;
17953;SDS011;9102;53.548;9.926;2022-10-15T05:38:13;56.90;;;26.02;;
17953;SDS011;9102;53.548;9.926;2022-10-15T05:40:40;57.08;;;27.02;;
17953;SDS011;9102;53.548;9.926;2022-10-15T05:43:12;53.80;;;26.15;;
17953;SDS011;9102;53.548;9.926;2022-10-15T05:45:40;59.47;;;26.67;;
17953;SDS011;9102;53.548;9.926;2022-10-15T05:48:07;57.08;;;27.75;;
17953;SDS011;9102;53.548;9.926;2022-10-15T05:50:33;56.92;;;27.15;;
17953;SDS011;9102;53.548;9.926;2022-10-15T05:53:00;56.15;;;27.52;;
17953;SDS011;9102;53.548;9.926;2022-10-15T05:55:27;60.72;;;27.40;;
17953;SDS011;9102;53.548;9.926;2022-10-15T05:57:55;53.00;;;26.40;;
17953;SDS011;9102;53.548;9.926;2022-10-15T06:00:26;59.30;;;27.90;;
17953;SDS011;9102;53.548;9.926;2022-10-15T06:02:54;60.20;;;28.65;;
17953;SDS011;9102;53.548;9.926;2022-10-15T06:05:21;54.45;;;25.70;;
17953;SDS011;9102;53.548;9.926;2022-10-15T06:07:48;61.53;;;29.30;;
17953;SDS011;9102;53.548;9.926;2022-10-15T06:10:15;56.95;;;27.60;;
17953;SDS011;9102;53.548;9.926;2022-10-15T06:12:42;58.90;;;27.00;;
17953;SDS011;9102;53.548;9.926;2022-10-15T06:15:13;50.85;;;25.88;;
17953;SDS011;9102;53.548;9.926;2022-10-15T06:17:40;51.22;;;25.15;;
17953;SDS011;9102;53.548;9.926;2022-10-15T06:20:09;53.88;;;27.27;;
17953;SDS011;9102;53.548;9.926;2022-10-15T06:22:36;54.63;;;24.40;;
17953;SDS011;9102;53.548;9.926;2022-10-15T06:25:03;53.50;;;27.23;;
17953;SDS011;9102;53.548;9.926;2022-10-15T06:27:31;50.75;;;26.63;;
17953;SDS011;9102;53.548;9.926;2022-10-15T06:29:58;53.53;;;27.15;;
17953;SDS011;9102;53.548;9.926;2022-10-15T06:32:24;60.80;;;27.13;;
17953;SDS011;9102;53.548;9.926;2022-10-15T06:34:51;58.45;;;26.73;;
17953;SDS011;9102;53.548;9.926;2022-10-15T06:37:19;55.53;;;26.90;;
17953;SDS011;9102;53.548;9.926;2022-10-15T06:39:46;49.72;;;25.33;;
17953;SDS011;9102;53.548;9.926;2022-10-15T06:42:13;47.75;;;24.35;;
17953;SDS011;9102;53.548;9.926;2022-10-15T06:44:40;55.47;;;27.25;;
17953;SDS011;9102;53.548;9.926;2022-10-15T06:47:07;56.95;;;27.08;;
17953;SDS011;9102;53.548;9.926;2022-10-15T06:49:34;54.67;;;26.45;;
17953;SDS011;9102;53.548;9.926;2022-10-15T06:52:00;56.65;;;27.40;;
17953;SDS011;9102;53.548;9.926;2022-10-15T06:54:28;55.88;;;26.52;;
17953;SDS011;9102;53.548;9.926;2022-10-15T06:56:55;51.17;;;26.80;;
17953;SDS011;9102;53.548;9.926;2022-10-15T06:59:22;52.35;;;25.77;;
17953;SDS011;9102;53.548;9.926;2022-10-15T07:01:49;50.72;;;24.50;;
17953;SDS011;9102;53.548;9.926;2022-10-15T07:04:16;52.10;;;26.00;;
17953;SDS011;9102;53.548;9.926;2022-10-15T07:06:42;54.25;;;26.23;;
17953;SDS011;9102;53.548;9.926;2022-10-15T07:09:09;50.10;;;25.05;;
17953;SDS011;9102;53.548;9.926;2022-10-15T07:11:37;52.88;;;26.05;;
17953;SDS011;9102;53.548;9.926;2022-10-15T07:14:04;49.75;;;24.73;;
17953;SDS011;9102;53.548;9.926;2022-10-15T07:16:31;54.20;;;26.27;;
17953;SDS011;9102;53.548;9.926;2022-10-15T07:18:57;50.10;;;25.23;;
17953;SDS011;9102;53.548;9.926;2022-10-15T07:21:24;51.38;;;24.48;;
17953;SDS011;9102;53.548;9.926;2022-10-15T07:23:51;55.17;;;26.25;;
17953;SDS011;9102;53.548;9.926;2022-10-15T07:26:18;55.55;;;26.35;;
17953;SDS011;9102;53.548;9.926;2022-10-15T07:28:46;50.15;;;25.50;;
17953;SDS011;9102;53.548;9.926;2022-10-15T07:31:13;50.30;;;24.73;;
17953;SDS011;9102;53.548;9.926;2022-10-15T07:33:40;47.53;;;24.00;;
17953;SDS011;9102;53.548;9.926;2022-10-15T07:36:08;51.80;;;25.63;;
17953;SDS011;9102;53.548;9.926;2022-10-15T07:38:36;51.67;;;25.10;;
17953;SDS011;9102;53.548;9.926;2022-10-15T07:41:05;45.33;;;23.38;;
17953;SDS011;9102;53.548;9.926;2022-10-15T07:43:34;47.22;;;23.63;;
17953;SDS011;9102;53.548;9.926;2022-10-15T07:46:03;44.08;;;23.30;;
17953;SDS011;9102;53.548;9.926;2022-10-15T07:48:30;50.72;;;24.13;;
17953;SDS011;9102;53.548;9.926;2022-10-15T07:50:58;48.95;;;25.35;;
17953;SDS011;9102;53.548;9.926;2022-10-15T07:53:26;50.75;;;23.60;;
17953;SDS011;9102;53.548;9.926;2022-10-15T07:55:55;50.35;;;24.63;;
17953;SDS011;9102;53.548;9.926;2022-10-15T07:58:23;42.97;;;21.48;;
17953;SDS011;9102;53.548;9.926;2022-10-15T08:00:50;46.42;;;24.30;;
17953;SDS011;9102;53.548;9.926;2022-10-15T08:03:18;44.25;;;22.50;;
17953;SDS011;9102;53.548;9.926;2022-10-15T08:05:45;40.65;;;22.13;;
17953;SDS011;9102;53.548;9.926;2022-10-15T08:08:12;44.28;;;22.42;;
17953;SDS011;9102;53.548;9.926;2022-10-15T08:10:39;42.70;;;22.40;;
17953;SDS011;9102;53.548;9.926;2022-10-15T08:13:05;49.88;;;24.35;;
17953;SDS011;9102;53.548;9.926;2022-10-15T08:15:32;48.72;;;22.83;;
17953;SDS011;9102;53.548;9.926;2022-10-15T08:17:59;40.05;;;21.13;;
17953;SDS011;9102;53.548;9.926;2022-10-15T08:20:27;39.00;;;21.25;;
17953;SDS011;9102;53.548;9.926;2022-10-15T08:22:54;36.83;;;22.27;;
17953;SDS011;9102;53.548;9.926;2022-10-15T08:25:20;38.65;;;20.98;;
17953;SDS011;9102;53.548;9.926;2022-10-15T08:27:47;39.65;;;20.70;;
17953;SDS011;9102;53.548;9.926;2022-10-15T08:30:14;34.20;;;18.83;;
17953;SDS011;9102;53.548;9.926;2022-10-15T08:32:41;39.03;;;21.23;;
17953;SDS011;9102;53.548;9.926;2022-10-15T08:35:08;35.55;;;19.67;;
17953;SDS011;9102;53.548;9.926;2022-10-15T08:37:36;35.00;;;18.95;;
17953;SDS011;9102;53.548;9.926;2022-10-15T08:40:03;35.53;;;19.38;;
17953;SDS011;9102;53.548;9.926;2022-10-15T08:42:31;32.10;;;17.63;;
17953;SDS011;9102;53.548;9.926;2022-10-15T08:45:03;32.15;;;17.90;;
17953;SDS011;9102;53.548;9.926;2022-10-15T08:47:36;33.97;;;18.15;;
17953;SDS011;9102;53.548;9.926;2022-10-15T08:50:11;30.75;;;18.02;;
17953;SDS011;9102;53.548;9.926;2022-10-15T08:52:46;29.98;;;17.58;;
17953;SDS011;9102;53.548;9.926;2022-10-15T08:55:16;31.65;;;17.10;;
17953;SDS011;9102;53.548;9.926;2022-10-15T08:57:44;30.27;;;16.95;;
17953;SDS011;9102;53.548;9.926;2022-10-15T09:00:16;31.65;;;18.52;;
17953;SDS011;9102;53.548;9.926;2022-10-15T09:02:47;34.72;;;18.02;;
17953;SDS011;9102;53.548;9.926;2022-10-15T09:05:23;31.42;;;16.92;;
17953;SDS011;9102;53.548;9.926;2022-10-15T09:08:00;31.75;;;15.85;;
17953;SDS011;9102;53.548;9.926;2022-10-15T09:10:35;26.60;;;16.33;;
17953;SDS011;9102;53.548;9.926;2022-10-15T09:13:09;30.00;;;16.83;;
17953;SDS011;9102;53.548;9.926;2022-10-15T09:15:40;29.17;;;16.08;;
17953;SDS011;9102;53.548;9.926;2022-10-15T09:18:16;29.05;;;14.57;;
17953;SDS011;9102;53.548;9.926;2022-10-15T09:20:46;27.67;;;15.40;;
17953;SDS011;9102;53.548;9.926;2022-10-15T09:23:16;26.65;;;16.30;;
17953;SDS011;9102;53.548;9.926;2022-10-15T09:25:46;28.40;;;16.10;;
17953;SDS011;9102;53.548;9.926;2022-10-15T09:28:19;26.27;;;15.23;;
17953;SDS011;9102;53.548;9.926;2022-10-15T09:30:51;22.52;;;13.65;;
17953;SDS011;9102;53.548;9.926;2022-10-15T09:33:28;31.08;;;14.30;;
17953;SDS011;9102;53.548;9.926;2022-10-15T09:36:03;25.67;;;13.98;;
17953;SDS011;9102;53.548;9.926;2022-10-15T09:38:41;29.10;;;14.90;;
17953;SDS011;9102;53.548;9.926;2022-10-15T09:41:16;27.60;;;14.80;;
17953;SDS011;9102;53.548;9.926;2022-10-15T09:43:50;30.05;;;15.07;;
17953;SDS011;9102;53.548;9.926;2022-10-15T09:46:20;23.13;;;13.98;;
17953;SDS011;9102;53.548;9.926;2022-10-15T09:48:49;27.42;;;14.15;;
17953;SDS011;9102;53.548;9.926;2022-10-15T09:51:24;26.45;;;14.07;;
17953;SDS011;9102;53.548;9.926;2022-10-15T09:54:00;25.77;;;13.90;;
17953;SDS011;9102;53.548;9.926;2022-10-15T09:56:31;32.92;;;15.73;;
17953;SDS011;9102;53.548;9.926;2022-10-15T09:59:01;23.85;;;13.05;;
17953;SDS011;9102;53.548;9.926;2022-10-15T10:01:28;24.13;;;13.85;;
17953;SDS011;9102;53.548;9.926;2022-10-15T10:04:08;26.50;;;13.40;;
17953;SDS011;9102;53.548;9.926;2022-10-15T10:06:42;24.83;;;12.73;;
17953;SDS011;9102;53.548;9.926;2022-10-15T10:09:16;24.77;;;12.98;;
17953;SDS011;9102;53.548;9.926;2022-10-15T10:11:46;26.65;;;12.77;;
17953;SDS011;9102;53.548;9.926;2022-10-15T10:14:20;21.02;;;11.93;;
17953;SDS011;9102;53.548;9.926;2022-10-15T10:19:41;19.45;;;10.90;;
17953;SDS011;9102;53.548;9.926;2022-10-15T10:22:12;19.55;;;11.48;;
17953;SDS011;9102;53.548;9.926;2022-10-15T10:24:42;16.17;;;10.20;;
17953;SDS011;9102;53.548;9.926;2022-10-15T10:27:16;23.65;;;12.10;;
17953;SDS011;9102;53.548;9.926;2022-10-15T10:29:51;21.65;;;11.13;;
17953;SDS011;9102;53.548;9.926;2022-10-15T10:32:22;17.83;;;10.48;;
17953;SDS011;9102;53.548;9.926;2022-10-15T10:34:53;17.02;;;10.20;;
17953;SDS011;9102;53.548;9.926;2022-10-15T10:37:21;22.55;;;11.40;;
17953;SDS011;9102;53.548;9.926;2022-10-15T10:39:53;20.58;;;10.90;;
17953;SDS011;9102;53.548;9.926;2022-10-15T10:42:23;18.48;;;10.90;;
17953;SDS011;9102;53.548;9.926;2022-10-15T10:44:52;16.38;;;7.93;;
17953;SDS011;9102;53.548;9.926;2022-10-15T10:47:20;12.88;;;6.68;;
17953;SDS011;9102;53.548;9.926;2022-10-15T10:49:48;10.73;;;6.40;;
17953;SDS011;9102;53.548;9.926;2022-10-15T10:52:20;13.95;;;7.55;;
17953;SDS011;9102;53.548;9.926;2022-10-15T10:54:54;19.33;;;8.63;;
17953;SDS011;9102;53.548;9.926;2022-10-15T10:57:29;15.30;;;9.10;;
17953;SDS011;9102;53.548;9.926;2022-10-15T11:00:05;19.73;;;9.82;;
17953;SDS011;9102;53.548;9.926;2022-10-15T11:02:33;16.23;;;9.20;;
17953;SDS011;9102;53.548;9.926;2022-10-15T11:05:05;14.75;;;8.90;;
17953;SDS011;9102;53.548;9.926;2022-10-15T11:07:34;13.80;;;8.98;;
17953;SDS011;9102;53.548;9.926;2022-10-15T11:10:09;13.80;;;8.15;;
17953;SDS011;9102;53.548;9.926;2022-10-15T11:12:45;13.05;;;7.95;;
17953;SDS011;9102;53.548;9.926;2022-10-15T11:15:35;11.57;;;7.47;;
17953;SDS011;9102;53.548;9.926;2022-10-15T11:18:17;11.82;;;5.10;;
17953;SDS011;9102;53.548;9.926;2022-10-15T11:20:55;13.85;;;5.45;;
17953;SDS011;9102;53.548;9.926;2022-10-15T11:23:31;9.98;;;5.00;;
17953;SDS011;9102;53.548;9.926;2022-10-15T11:26:12;10.95;;;5.13;;
17953;SDS011;9102;53.548;9.926;2022-10-15T11:28:55;10.30;;;4.53;;
17953;SDS011;9102;53.548;9.926;2022-10-15T11:31:32;7.55;;;3.88;;
17953;SDS011;9102;53.548;9.926;2022-10-15T11:34:08;8.20;;;3.17;;
17953;SDS011;9102;53.548;9.926;2022-10-15T11:36:49;5.18;;;2.58;;
17953;SDS011;9102;53.548;9.926;2022-10-15T11:39:29;4.38;;;2.25;;
17953;SDS011;9102;53.548;9.926;2022-10-15T11:42:09;6.00;;;2.60;;
17953;SDS011;9102;53.548;9.926;2022-10-15T11:44:50;5.22;;;2.85;;
17953;SDS011;9102;53.548;9.926;2022-10-15T11:47:31;5.30;;;2.92;;
17953;SDS011;9102;53.548;9.926;2022-10-15T11:50:12;4.15;;;2.88;;
17953;SDS011;9102;53.548;9.926;2022-10-15T11:52:47;4.93;;;2.50;;
17953;SDS011;9102;53.548;9.926;2022-10-15T11:55:21;6.20;;;2.58;;
17953;SDS011;9102;53.548;9.926;2022-10-15T11:57:56;6.45;;;3.08;;
17953;SDS011;9102;53.548;9.926;2022-10-15T12:00:29;5.93;;;2.22;;
17953;SDS011;9102;53.548;9.926;2022-10-15T12:02:59;5.95;;;3.03;;
17953;SDS011;9102;53.548;9.926;2022-10-15T12:05:31;6.82;;;2.97;;
17953;SDS011;9102;53.548;9.926;2022-10-15T12:08:00;4.85;;;2.97;;
17953;SDS011;9102;53.548;9.926;2022-10-15T12:10:32;7.50;;;2.67;;
17953;SDS011;9102;53.548;9.926;2022-10-15T12:13:07;4.65;;;2.58;;
17953;SDS011;9102;53.548;9.926;2022-10-15T12:15:38;7.95;;;3.13;;
17953;SDS011;9102;53.548;9.926;2022-10-15T12:18:14;8.48;;;3.17;;
17953;SDS011;9102;53.548;9.926;2022-10-15T12:20:48;9.07;;;3.45;;
17953;SDS011;9102;53.548;9.926;2022-10-15T12:23:22;5.13;;;3.05;;
17953;SDS011;9102;53.548;9.926;2022-10-15T12:25:50;6.28;;;3.08;;
17953;SDS011;9102;53.548;9.926;2022-10-15T12:28:20;6.80;;;3.50;;
17953;SDS011;9102;53.548;9.926;2022-10-15T12:30:52;6.60;;;3.45;;
17953;SDS011;9102;53.548;9.926;2022-10-15T12:33:31;8.30;;;3.20;;
17953;SDS011;9102;53.548;9.926;2022-10-15T12:36:00;7.32;;;3.88;;
17953;SDS011;9102;53.548;9.926;2022-10-15T12:38:33;7.25;;;3.53;;
17953;SDS011;9102;53.548;9.926;2022-10-15T12:41:03;5.63;;;3.42;;
17953;SDS011;9102;53.548;9.926;2022-10-15T12:43:34;6.88;;;3.80;;
17953;SDS011;9102;53.548;9.926;2022-10-15T12:46:03;6.53;;;3.83;;
17953;SDS011;9102;53.548;9.926;2022-10-15T12:48:34;8.10;;;4.03;;
17953;SDS011;9102;53.548;9.926;2022-10-15T12:51:28;7.95;;;3.63;;
17953;SDS011;9102;53.548;9.926;2022-10-15T12:53:55;8.18;;;3.75;;
17953;SDS011;9102;53.548;9.926;2022-10-15T12:56:24;8.35;;;3.83;;
17953;SDS011;9102;53.548;9.926;2022-10-15T12:59:04;7.43;;;4.07;;
17953;SDS011;9102;53.548;9.926;2022-10-15T13:01:55;6.00;;;3.63;;
17953;SDS011;9102;53.548;9.926;2022-10-15T13:04:22;7.57;;;3.42;;
17953;SDS011;9102;53.548;9.926;2022-10-15T13:07:01;6.50;;;4.03;;
17953;SDS011;9102;53.548;9.926;2022-10-15T13:09:29;9.23;;;4.70;;
17953;SDS011;9102;53.548;9.926;2022-10-15T13:11:56;8.90;;;4.32;;
17953;SDS011;9102;53.548;9.926;2022-10-15T13:14:28;9.70;;;4.88;;
17953;SDS011;9102;53.548;9.926;2022-10-15T13:16:57;7.78;;;4.53;;
17953;SDS011;9102;53.548;9.926;2022-10-15T13:19:27;9.20;;;4.65;;
17953;SDS011;9102;53.548;9.926;2022-10-15T13:21:57;12.52;;;4.38;;
17953;SDS011;9102;53.548;9.926;2022-10-15T13:24:26;6.53;;;4.50;;
17953;SDS011;9102;53.548;9.926;2022-10-15T13:26:54;12.13;;;4.60;;
17953;SDS011;9102;53.548;9.926;2022-10-15T13:29:27;10.20;;;5.07;;
17953;SDS011;9102;53.548;9.926;2022-10-15T13:31:55;11.90;;;5.18;;
17953;SDS011;9102;53.548;9.926;2022-10-15T13:34:25;9.35;;;5.35;;
17953;SDS011;9102;53.548;9.926;2022-10-15T13:36:54;10.90;;;5.18;;
17953;SDS011;9102;53.548;9.926;2022-10-15T13:39:27;8.57;;;4.88;;
17953;SDS011;9102;53.548;9.926;2022-10-15T13:42:05;12.40;;;6.13;;
17953;SDS011;9102;53.548;9.926;2022-10-15T13:44:35;10.77;;;6.47;;
17953;SDS011;9102;53.548;9.926;2022-10-15T13:47:02;10.40;;;6.00;;
17953;SDS011;9102;53.548;9.926;2022-10-15T13:49:42;11.80;;;8.13;;
17953;SDS011;9102;53.548;9.926;2022-10-15T13:52:09;9.43;;;5.68;;
17953;SDS011;9102;53.548;9.926;2022-10-15T13:54:35;13.85;;;6.50;;
17953;SDS011;9102;53.548;9.926;2022-10-15T13:57:08;11.13;;;6.53;;
17953;SDS011;9102;53.548;9.926;2022-10-15T13:59:43;12.07;;;7.15;;
17953;SDS011;9102;53.548;9.926;2022-10-15T14:02:11;15.00;;;8.40;;
17953;SDS011;9102;53.548;9.926;2022-10-15T14:04:39;12.35;;;8.18;;
17953;SDS011;9102;53.548;9.926;2022-10-15T14:07:17;11.18;;;8.13;;
17953;SDS011;9102;53.548;9.926;2022-10-15T14:09:47;14.75;;;8.80;;
17953;SDS011;9102;53.548;9.926;2022-10-15T14:12:15;14.32;;;9.40;;
17953;SDS011;9102;53.548;9.926;2022-10-15T14:14:44;14.40;;;9.57;;
17953;SDS011;9102;53.548;9.926;2022-10-15T14:17:19;14.73;;;9.45;;
17953;SDS011;9102;53.548;9.926;2022-10-15T14:19:48;17.42;;;10.52;;
17953;SDS011;9102;53.548;9.926;2022-10-15T14:22:17;19.90;;;10.73;;
17953;SDS011;9102;53.548;9.926;2022-10-15T14:24:47;16.98;;;10.55;;
17953;SDS011;9102;53.548;9.926;2022-10-15T14:27:17;16.00;;;10.32;;
17953;SDS011;9102;53.548;9.926;2022-10-15T14:29:51;16.50;;;10.40;;
17953;SDS011;9102;53.548;9.926;2022-10-15T14:32:20;15.10;;;10.32;;
17953;SDS011;9102;53.548;9.926;2022-10-15T14:34:49;17.05;;;11.05;;
17953;SDS011;9102;53.548;9.926;2022-10-15T14:37:27;18.73;;;11.30;;
17953;SDS011;9102;53.548;9.926;2022-10-15T14:40:14;17.48;;;10.85;;
17953;SDS011;9102;53.548;9.926;2022-10-15T14:42:44;16.77;;;10.57;;
17953;SDS011;9102;53.548;9.926;2022-10-15T14:45:19;22.45;;;14.77;;
17953;SDS011;9102;53.548;9.926;2022-10-15T14:47:49;20.42;;;12.88;;
17953;SDS011;9102;53.548;9.926;2022-10-15T14:50:18;20.05;;;12.48;;
17953;SDS011;9102;53.548;9.926;2022-10-15T14:52:49;22.20;;;11.93;;
17953;SDS011;9102;53.548;9.926;2022-10-15T14:55:22;18.23;;;12.52;;
17953;SDS011;9102;53.548;9.926;2022-10-15T14:57:57;18.35;;;12.07;;
17953;SDS011;9102;53.548;9.926;2022-10-15T15:00:28;17.70;;;11.90;;
17953;SDS011;9102;53.548;9.926;2022-10-15T15:02:58;18.27;;;11.98;;